createdAt,value
2018-02-23T00:00:13.866Z,-6.05
2018-02-23T00:01:23.853Z,-6.07
2018-02-23T00:02:33.848Z,-6.12
2018-02-23T00:03:43.567Z,-6.18
2018-02-23T00:04:53.283Z,-6.12
2018-02-23T00:06:03.271Z,-6.07
2018-02-23T00:07:12.994Z,-6.16
2018-02-23T00:08:22.991Z,-6.24
2018-02-23T00:09:32.985Z,-6.27
2018-02-23T00:10:42.968Z,-6.26
2018-02-23T00:11:52.951Z,-6.26
2018-02-23T00:13:02.671Z,-6.21
2018-02-23T00:14:12.655Z,-6.26
2018-02-23T00:15:22.644Z,-6.15
2018-02-23T00:16:32.683Z,-6.26
2018-02-23T00:17:42.879Z,-6.26
2018-02-23T00:18:52.869Z,-6.2
2018-02-23T00:20:02.863Z,-6.1
2018-02-23T00:21:12.048Z,-6.06
2018-02-23T00:22:22.037Z,-6.12
2018-02-23T00:23:32.019Z,-6.03
2018-02-23T00:24:41.739Z,-6.07
2018-02-23T00:25:51.458Z,-6.05
2018-02-23T00:27:01.467Z,-6.06
2018-02-23T00:28:11.164Z,-6.05
2018-02-23T00:29:21.159Z,-6.1
2018-02-23T00:30:31.156Z,-6.06
2018-02-23T00:31:41.143Z,-6.03
2018-02-23T00:32:51.126Z,-6
2018-02-23T00:34:01.119Z,-6.05
2018-02-23T00:35:10.842Z,-6.02
2018-02-23T00:36:20.828Z,-6.03
2018-02-23T00:37:30.548Z,-6.03
2018-02-23T00:38:40.749Z,-6.05
2018-02-23T00:39:50.472Z,-6.06
2018-02-23T00:41:00.468Z,-6
2018-02-23T00:42:10.197Z,-6.05
2018-02-23T00:43:20.189Z,-6.02
2018-02-23T00:44:30.185Z,-6.03
2018-02-23T00:45:39.644Z,-6
2018-02-23T00:46:49.630Z,-6.05
2018-02-23T00:47:59.619Z,-6
2018-02-23T00:49:09.608Z,-5.97
2018-02-23T00:50:19.596Z,-5.95
2018-02-23T00:51:29.588Z,-5.99
2018-02-23T00:52:39.588Z,-6.03
2018-02-23T00:53:49.318Z,-6.05
2018-02-23T00:54:59.303Z,-6.05
2018-02-23T00:56:09.302Z,-6.1
2018-02-23T00:57:19.290Z,-6.09
2018-02-23T00:58:29.011Z,-6.09
2018-02-23T00:59:39.013Z,-6.13
2018-02-23T01:00:48.749Z,-6.06
2018-02-23T01:01:58.206Z,-6.07
2018-02-23T01:03:07.926Z,-6.18
2018-02-23T01:04:17.915Z,-6.12
2018-02-23T01:05:27.968Z,-6.15
2018-02-23T01:06:38.017Z,-6.1
2018-02-23T01:07:48.006Z,-6.13
2018-02-23T01:08:58.013Z,-6.12
2018-02-23T01:10:07.723Z,-6.16
2018-02-23T01:11:17.717Z,-6.07
2018-02-23T01:12:27.698Z,-6.06
2018-02-23T01:13:37.686Z,-6.02
2018-02-23T01:14:47.680Z,-6.05
2018-02-23T01:15:57.677Z,-6.12
2018-02-23T01:17:07.414Z,-6.15
2018-02-23T01:18:17.403Z,-6.12
2018-02-23T01:19:27.232Z,-6.1
2018-02-23T01:20:37.223Z,-6.02
2018-02-23T01:21:46.956Z,-5.97
2018-02-23T01:22:56.421Z,-5.97
2018-02-23T01:24:06.135Z,-5.92
2018-02-23T01:25:16.132Z,-5.95
2018-02-23T01:26:26.125Z,-5.94
2018-02-23T01:27:36.114Z,-5.84
2018-02-23T01:28:46.105Z,-5.88
2018-02-23T01:29:55.818Z,-5.78
2018-02-23T01:31:05.811Z,-5.82
2018-02-23T01:32:15.552Z,-5.82
2018-02-23T01:33:25.541Z,-5.84
2018-02-23T01:34:35.529Z,-5.76
2018-02-23T01:35:45.344Z,-5.71
2018-02-23T01:36:55.383Z,-5.76
2018-02-23T01:38:05.375Z,-5.85
2018-02-23T01:39:15.370Z,-5.82
2018-02-23T01:40:25.094Z,-5.82
2018-02-23T01:41:35.088Z,-5.81
2018-02-23T01:42:44.544Z,-5.87
2018-02-23T01:43:54.528Z,-5.91
2018-02-23T01:45:04.518Z,-5.94
2018-02-23T01:46:14.242Z,-5.82
2018-02-23T01:47:24.235Z,-5.81
2018-02-23T01:48:34.326Z,-5.82
2018-02-23T01:49:44.048Z,-5.7
2018-02-23T01:50:54.037Z,-5.68
2018-02-23T01:52:04.026Z,-5.68
2018-02-23T01:53:14.014Z,-5.66
2018-02-23T01:54:23.200Z,-5.58
2018-02-23T01:55:33.180Z,-5.59
2018-02-23T01:56:43.163Z,-5.5
2018-02-23T01:57:52.890Z,-5.52
2018-02-23T01:59:02.879Z,-5.43
2018-02-23T02:00:12.609Z,-5.43
2018-02-23T02:01:22.339Z,-5.46
2018-02-23T02:02:32.337Z,-5.31
2018-02-23T02:03:41.800Z,-5.28
2018-02-23T02:04:51.795Z,-5.25
2018-02-23T02:06:01.790Z,-5.28
2018-02-23T02:07:11.778Z,-5.27
2018-02-23T02:08:21.766Z,-5.3
2018-02-23T02:09:31.810Z,-5.23
2018-02-23T02:10:41.267Z,-5.17
2018-02-23T02:11:50.990Z,-5.28
2018-02-23T02:13:00.977Z,-5.3
2018-02-23T02:14:10.714Z,-5.3
2018-02-23T02:15:20.719Z,-5.27
2018-02-23T02:16:30.709Z,-5.28
2018-02-23T02:17:40.810Z,-5.25
2018-02-23T02:18:50.532Z,-5.32
2018-02-23T02:20:00.517Z,-5.39
2018-02-23T02:21:10.241Z,-5.41
2018-02-23T02:22:20.232Z,-5.48
2018-02-23T02:23:30.220Z,-5.56
2018-02-23T02:24:39.672Z,-5.5
2018-02-23T02:25:49.149Z,-5.59
2018-02-23T02:26:59.140Z,-5.59
2018-02-23T02:28:09.133Z,-5.52
2018-02-23T02:29:19.125Z,-5.59
2018-02-23T02:30:28.588Z,-5.59
2018-02-23T02:31:38.589Z,-5.58
2018-02-23T02:32:48.581Z,-5.64
2018-02-23T02:33:58.576Z,-5.68
2018-02-23T02:35:08.627Z,-5.59
2018-02-23T02:36:18.626Z,-5.73
2018-02-23T02:37:28.635Z,-5.7
2018-02-23T02:38:38.362Z,-5.6
2018-02-23T02:39:48.098Z,-5.7
2018-02-23T02:40:58.092Z,-5.76
2018-02-23T02:42:08.096Z,-5.64
2018-02-23T02:43:18.094Z,-5.73
2018-02-23T02:44:28.087Z,-5.66
2018-02-23T02:45:38.145Z,-5.68
2018-02-23T02:46:48.143Z,-5.7
2018-02-23T02:47:57.874Z,-5.68
2018-02-23T02:49:07.335Z,-5.73
2018-02-23T02:50:17.343Z,-5.74
2018-02-23T02:51:27.338Z,-5.67
2018-02-23T02:52:37.072Z,-5.77
2018-02-23T02:53:47.081Z,-5.78
2018-02-23T02:54:57.084Z,-5.73
2018-02-23T02:56:07.096Z,-5.77
2018-02-23T02:57:17.115Z,-5.73
2018-02-23T02:58:27.110Z,-5.78
2018-02-23T02:59:37.178Z,-5.78
2018-02-23T03:00:47.172Z,-5.74
2018-02-23T03:01:57.177Z,-5.77
2018-02-23T03:03:07.205Z,-5.82
2018-02-23T03:04:16.944Z,-5.78
2018-02-23T03:05:26.671Z,-5.7
2018-02-23T03:06:36.413Z,-5.63
2018-02-23T03:07:46.411Z,-5.68
2018-02-23T03:08:56.139Z,-5.7
2018-02-23T03:10:05.871Z,-5.66
2018-02-23T03:11:15.336Z,-5.63
2018-02-23T03:12:25.324Z,-5.59
2018-02-23T03:13:35.312Z,-5.59
2018-02-23T03:14:45.311Z,-5.59
2018-02-23T03:15:55.297Z,-5.5
2018-02-23T03:17:05.295Z,-5.56
2018-02-23T03:18:15.283Z,-5.6
2018-02-23T03:19:25.014Z,-5.58
2018-02-23T03:20:34.740Z,-5.53
2018-02-23T03:21:44.464Z,-5.59
2018-02-23T03:22:54.457Z,-5.59
2018-02-23T03:24:04.178Z,-5.67
2018-02-23T03:25:13.638Z,-5.7
2018-02-23T03:26:23.626Z,-5.67
2018-02-23T03:27:33.663Z,-5.7
2018-02-23T03:28:43.663Z,-5.68
2018-02-23T03:29:53.392Z,-5.73
2018-02-23T03:31:03.401Z,-5.77
2018-02-23T03:32:13.404Z,-5.78
2018-02-23T03:33:23.384Z,-5.77
2018-02-23T03:34:33.375Z,-5.76
2018-02-23T03:35:43.363Z,-5.73
2018-02-23T03:36:53.355Z,-5.82
2018-02-23T03:38:03.074Z,-5.77
2018-02-23T03:39:13.073Z,-5.81
2018-02-23T03:40:23.072Z,-5.81
2018-02-23T03:41:33.060Z,-5.73
2018-02-23T03:42:42.787Z,-5.78
2018-02-23T03:43:52.776Z,-5.78
2018-02-23T03:45:02.766Z,-5.81
2018-02-23T03:46:12.757Z,-5.78
2018-02-23T03:47:22.478Z,-5.81
2018-02-23T03:48:32.466Z,-5.84
2018-02-23T03:49:42.460Z,-5.85
2018-02-23T03:50:52.183Z,-5.78
2018-02-23T03:52:02.178Z,-5.77
2018-02-23T03:53:11.899Z,-5.73
2018-02-23T03:54:21.615Z,-5.71
2018-02-23T03:55:31.614Z,-5.67
2018-02-23T03:56:41.653Z,-5.73
2018-02-23T03:57:51.655Z,-5.67
2018-02-23T03:59:01.646Z,-5.63
2018-02-23T04:04:32.007Z,-5.68
2018-02-23T04:05:42.035Z,-5.68
2018-02-23T04:06:52.028Z,-5.7
2018-02-23T04:08:01.754Z,-5.7
2018-02-23T04:09:11.754Z,-5.67
2018-02-23T04:10:21.746Z,-5.67
2018-02-23T04:11:31.513Z,-5.63
2018-02-23T04:12:41.556Z,-5.7
2018-02-23T04:13:51.278Z,-5.81
2018-02-23T04:15:00.998Z,-5.71
2018-02-23T04:16:10.993Z,-5.73
2018-02-23T04:17:20.744Z,-5.73
2018-02-23T04:18:30.466Z,-5.63
2018-02-23T04:19:40.187Z,-5.7
2018-02-23T04:20:50.178Z,-5.58
2018-02-23T04:22:00.166Z,-5.59
2018-02-23T04:23:09.893Z,-5.56
2018-02-23T04:24:19.875Z,-5.48
2018-02-23T04:25:29.598Z,-5.46
2018-02-23T04:26:39.620Z,-5.55
2018-02-23T04:27:49.349Z,-5.41
2018-02-23T04:28:59.344Z,-5.38
2018-02-23T04:30:09.340Z,-5.35
2018-02-23T04:31:19.326Z,-5.27
2018-02-23T04:32:29.060Z,-5.16
2018-02-23T04:33:39.049Z,-5.17
2018-02-23T04:34:49.038Z,-5.21
2018-02-23T04:35:58.758Z,-5.23
2018-02-23T04:37:08.479Z,-5.17
2018-02-23T04:38:18.467Z,-5.23
2018-02-23T04:39:28.475Z,-5.2
2018-02-23T04:40:37.965Z,-5.28
2018-02-23T04:41:47.687Z,-5.28
2018-02-23T04:42:57.670Z,-5.31
2018-02-23T04:44:07.666Z,-5.37
2018-02-23T04:45:17.646Z,-5.41
2018-02-23T04:46:27.369Z,-5.45
2018-02-23T04:47:37.140Z,-5.48
2018-02-23T04:48:46.865Z,-5.49
2018-02-23T04:49:56.858Z,-5.49
2018-02-23T04:51:06.853Z,-5.52
2018-02-23T04:52:16.841Z,-5.49
2018-02-23T04:53:26.835Z,-5.6
2018-02-23T04:54:36.561Z,-5.46
2018-02-23T04:55:46.647Z,-5.48
2018-02-23T04:56:56.366Z,-5.45
2018-02-23T04:58:06.361Z,-5.32
2018-02-23T04:59:16.344Z,-5.37
2018-02-23T05:00:26.331Z,-5.3
2018-02-23T05:01:36.372Z,-5.2
2018-02-23T05:02:46.098Z,-5.3
2018-02-23T05:03:56.094Z,-5.31
2018-02-23T05:05:05.814Z,-5.3
2018-02-23T05:06:15.537Z,-5.21
2018-02-23T05:07:25.526Z,-5.12
2018-02-23T05:08:35.518Z,-5.12
2018-02-23T05:09:45.507Z,-5.16
2018-02-23T05:10:55.576Z,-5.13
2018-02-23T05:12:05.032Z,-5.09
2018-02-23T05:13:15.123Z,-5.1
2018-02-23T05:14:25.113Z,-5.06
2018-02-23T05:15:34.578Z,-5.13
2018-02-23T05:16:44.299Z,-5.13
2018-02-23T05:17:54.033Z,-4.98
2018-02-23T05:19:04.329Z,-5.05
2018-02-23T05:20:14.056Z,-5.12
2018-02-23T05:21:23.777Z,-5.16
2018-02-23T05:22:33.767Z,-5.2
2018-02-23T05:23:43.764Z,-5.23
2018-02-23T05:24:53.761Z,-5.27
2018-02-23T05:26:02.949Z,-5.28
2018-02-23T05:27:12.942Z,-5.35
2018-02-23T05:28:22.666Z,-5.39
2018-02-23T05:29:32.394Z,-5.43
2018-02-23T05:30:42.380Z,-5.5
2018-02-23T05:31:52.367Z,-5.52
2018-02-23T05:33:02.096Z,-5.56
2018-02-23T05:34:11.818Z,-5.45
2018-02-23T05:35:21.807Z,-5.5
2018-02-23T05:36:31.627Z,-5.5
2018-02-23T05:37:41.616Z,-5.55
2018-02-23T05:38:51.608Z,-5.53
2018-02-23T05:40:01.338Z,-5.39
2018-02-23T05:41:11.058Z,-5.41
2018-02-23T05:42:21.048Z,-5.45
2018-02-23T05:43:31.039Z,-5.43
2018-02-23T05:44:41.028Z,-5.43
2018-02-23T05:45:51.019Z,-5.5
2018-02-23T05:47:01.006Z,-5.48
2018-02-23T05:48:10.996Z,-5.49
2018-02-23T05:49:20.984Z,-5.58
2018-02-23T05:50:30.973Z,-5.63
2018-02-23T05:51:40.693Z,-5.7
2018-02-23T05:52:50.417Z,-5.64
2018-02-23T05:54:00.413Z,-5.66
2018-02-23T05:55:10.137Z,-5.64
2018-02-23T05:56:19.859Z,-5.73
2018-02-23T05:57:29.851Z,-5.81
2018-02-23T05:58:39.577Z,-5.84
2018-02-23T05:59:49.303Z,-5.82
2018-02-23T06:00:59.023Z,-5.95
2018-02-23T06:02:08.481Z,-5.88
2018-02-23T06:03:18.469Z,-5.88
2018-02-23T06:04:28.191Z,-5.94
2018-02-23T06:05:38.201Z,-5.97
2018-02-23T06:06:47.921Z,-5.95
2018-02-23T06:07:57.659Z,-5.92
2018-02-23T06:09:07.651Z,-5.95
2018-02-23T06:10:17.642Z,-5.87
2018-02-23T06:11:27.643Z,-6
2018-02-23T06:12:37.640Z,-6.02
2018-02-23T06:13:47.630Z,-6.03
2018-02-23T06:14:57.656Z,-6.07
2018-02-23T06:16:07.384Z,-6.07
2018-02-23T06:17:17.382Z,-6.05
2018-02-23T06:18:27.374Z,-6
2018-02-23T06:19:37.372Z,-6.05
2018-02-23T06:20:47.363Z,-5.88
2018-02-23T06:21:57.083Z,-5.77
2018-02-23T06:23:07.066Z,-5.82
2018-02-23T06:24:16.784Z,-5.81
2018-02-23T06:25:26.783Z,-5.78
2018-02-23T06:26:36.777Z,-5.77
2018-02-23T06:27:46.767Z,-5.78
2018-02-23T06:28:56.779Z,-5.74
2018-02-23T06:30:06.234Z,-5.81
2018-02-23T06:31:16.227Z,-5.87
2018-02-23T06:32:25.679Z,-5.85
2018-02-23T06:33:35.662Z,-5.82
2018-02-23T06:34:45.652Z,-5.84
2018-02-23T06:35:55.377Z,-5.68
2018-02-23T06:37:05.367Z,-5.67
2018-02-23T06:38:15.356Z,-5.67
2018-02-23T06:39:25.080Z,-5.66
2018-02-23T06:40:34.297Z,-5.66
2018-02-23T06:41:43.753Z,-5.71
2018-02-23T06:42:53.749Z,-5.6
2018-02-23T06:44:03.733Z,-5.7
2018-02-23T06:45:13.719Z,-5.67
2018-02-23T06:46:23.437Z,-5.59
2018-02-23T06:47:33.159Z,-5.58
2018-02-23T06:48:42.882Z,-5.5
2018-02-23T06:49:52.920Z,-5.46
2018-02-23T06:51:02.912Z,-5.53
2018-02-23T06:52:12.633Z,-5.53
2018-02-23T06:53:22.634Z,-5.55
2018-02-23T06:54:32.636Z,-5.58
2018-02-23T06:55:42.359Z,-5.46
2018-02-23T06:56:52.354Z,-5.49
2018-02-23T06:58:02.339Z,-5.59
2018-02-23T06:59:11.530Z,-5.58
2018-02-23T07:00:21.618Z,-5.59
2018-02-23T07:01:31.613Z,-5.59
2018-02-23T07:02:41.332Z,-5.68
2018-02-23T07:03:51.424Z,-5.66
2018-02-23T07:05:01.123Z,-5.67
2018-02-23T07:06:10.858Z,-5.68
2018-02-23T07:07:20.849Z,-5.7
2018-02-23T07:08:30.835Z,-5.81
2018-02-23T07:09:40.555Z,-5.74
2018-02-23T07:10:50.658Z,-5.82
2018-02-23T07:12:00.136Z,-5.82
2018-02-23T07:13:09.859Z,-5.78
2018-02-23T07:14:19.856Z,-5.81
2018-02-23T07:15:29.319Z,-5.87
2018-02-23T07:16:39.306Z,-5.67
2018-02-23T07:17:49.024Z,-5.77
2018-02-23T07:18:58.747Z,-5.84
2018-02-23T07:20:08.470Z,-5.84
2018-02-23T07:21:17.922Z,-5.78
2018-02-23T07:22:27.386Z,-5.81
2018-02-23T07:23:37.380Z,-5.77
2018-02-23T07:24:47.364Z,-5.81
2018-02-23T07:25:57.355Z,-5.78
2018-02-23T07:27:07.344Z,-5.78
2018-02-23T07:28:17.329Z,-5.77
2018-02-23T07:29:26.792Z,-5.81
2018-02-23T07:30:36.512Z,-5.81
2018-02-23T07:31:46.498Z,-5.68
2018-02-23T07:32:56.525Z,-5.6
2018-02-23T07:34:06.513Z,-5.64
2018-02-23T07:35:16.512Z,-5.55
2018-02-23T07:36:26.495Z,-5.45
2018-02-23T07:37:36.502Z,-5.52
2018-02-23T07:38:46.230Z,-5.43
2018-02-23T07:39:56.224Z,-5.32
2018-02-23T07:41:05.946Z,-5.32
2018-02-23T07:42:15.931Z,-5.2
2018-02-23T07:43:25.658Z,-5.17
2018-02-23T07:44:35.646Z,-5.13
2018-02-23T07:45:45.647Z,-5.1
2018-02-23T07:46:55.371Z,-5.08
2018-02-23T07:48:05.375Z,-5.02
2018-02-23T07:49:15.368Z,-5.17
2018-02-23T07:50:25.588Z,-5.16
2018-02-23T07:51:35.310Z,-5.16
2018-02-23T07:52:45.048Z,-5.01
2018-02-23T07:53:54.777Z,-4.94
2018-02-23T07:55:04.500Z,-4.88
2018-02-23T07:56:14.492Z,-4.83
2018-02-23T07:57:24.220Z,-4.73
2018-02-23T07:58:33.946Z,-4.7
2018-02-23T07:59:43.935Z,-4.61
2018-02-23T08:00:53.400Z,-4.61
2018-02-23T08:02:03.126Z,-4.65
2018-02-23T08:03:12.580Z,-4.59
2018-02-23T08:04:22.316Z,-4.45
2018-02-23T08:05:32.040Z,-4.47
2018-02-23T08:06:42.028Z,-4.41
2018-02-23T08:07:51.514Z,-4.34
2018-02-23T08:09:01.373Z,-4.24
2018-02-23T08:10:11.378Z,-4.22
2018-02-23T08:11:21.369Z,-4.17
2018-02-23T08:12:31.362Z,-4.14
2018-02-23T08:13:41.182Z,-4.19
2018-02-23T08:14:50.900Z,-4.04
2018-02-23T08:16:00.900Z,-4.17
2018-02-23T08:17:10.893Z,-4.02
2018-02-23T08:18:20.886Z,-4.04
2018-02-23T08:19:30.876Z,-3.94
2018-02-23T08:20:40.597Z,-3.96
2018-02-23T08:21:50.590Z,-4.02
2018-02-23T08:23:00.578Z,-3.88
2018-02-23T08:24:10.037Z,-3.83
2018-02-23T08:25:20.074Z,-3.69
2018-02-23T08:26:30.089Z,-3.66
2018-02-23T08:27:39.875Z,-3.75
2018-02-23T08:28:49.869Z,-3.65
2018-02-23T08:29:59.865Z,-3.53
2018-02-23T08:31:09.867Z,-3.58
2018-02-23T08:32:19.586Z,-3.47
2018-02-23T08:33:29.570Z,-3.44
2018-02-23T08:34:39.556Z,-3.47
2018-02-23T08:35:49.274Z,-3.38
2018-02-23T08:36:59.265Z,-3.38
2018-02-23T08:38:08.990Z,-3.33
2018-02-23T08:39:18.711Z,-3.33
2018-02-23T08:40:28.702Z,-3.25
2018-02-23T08:41:38.704Z,-3.29
2018-02-23T08:42:48.701Z,-3.15
2018-02-23T08:43:58.425Z,-3.2
2018-02-23T08:45:07.888Z,-3.14
2018-02-23T08:46:17.894Z,-3.09
2018-02-23T08:47:27.628Z,-3.07
2018-02-23T08:48:37.616Z,-3.09
2018-02-23T08:49:47.341Z,-2.94
2018-02-23T08:50:57.070Z,-2.94
2018-02-23T08:52:06.530Z,-2.94
2018-02-23T08:53:16.255Z,-2.73
2018-02-23T08:54:25.710Z,-2.68
2018-02-23T08:55:35.698Z,-2.68
2018-02-23T08:56:45.429Z,-2.54
2018-02-23T08:57:54.887Z,-2.48
2018-02-23T08:59:04.357Z,-2.39
2018-02-23T09:00:14.451Z,-2.5
2018-02-23T09:01:24.285Z,-2.34
2018-02-23T09:02:34.330Z,-2.36
2018-02-23T09:03:44.061Z,-2.36
2018-02-23T09:04:54.046Z,-2.33
2018-02-23T09:06:03.506Z,-2.26
2018-02-23T09:07:12.987Z,-2.34
2018-02-23T09:08:22.985Z,-2.44
2018-02-23T09:09:32.718Z,-2.29
2018-02-23T09:10:42.444Z,-2.18
2018-02-23T09:11:52.174Z,-2.08
2018-02-23T09:13:02.168Z,-2
2018-02-23T09:14:12.160Z,-1.89
2018-02-23T09:15:21.886Z,-1.9
2018-02-23T09:16:31.615Z,-1.78
2018-02-23T09:17:41.441Z,-1.84
2018-02-23T09:18:51.221Z,-1.94
2018-02-23T09:20:00.949Z,-1.89
2018-02-23T09:21:10.411Z,-1.84
2018-02-23T09:22:20.407Z,-1.82
2018-02-23T09:23:30.144Z,-1.76
2018-02-23T09:24:40.265Z,-1.64
2018-02-23T09:25:50.001Z,-1.43
2018-02-23T09:26:59.995Z,-1.45
2018-02-23T09:28:09.725Z,-1.5
2018-02-23T09:29:19.767Z,-1.48
2018-02-23T09:30:29.493Z,-1.54
2018-02-23T09:31:39.492Z,-1.45
2018-02-23T09:32:48.953Z,-1.56
2018-02-23T09:33:58.681Z,-1.48
2018-02-23T09:35:08.674Z,-1.46
2018-02-23T09:36:18.668Z,-1.43
2018-02-23T09:37:28.659Z,-1.39
2018-02-23T09:38:38.657Z,-1.39
2018-02-23T09:39:48.132Z,-1.36
2018-02-23T09:40:58.127Z,-1.43
2018-02-23T09:42:07.854Z,-1.19
2018-02-23T09:43:17.586Z,-1.09
2018-02-23T09:44:27.583Z,-0.87
2018-02-23T09:45:37.580Z,-0.81
2018-02-23T09:46:47.309Z,-0.77
2018-02-23T09:47:57.041Z,-0.67
2018-02-23T09:49:06.773Z,-0.59
2018-02-23T09:50:16.782Z,-0.49
2018-02-23T09:51:26.613Z,-0.42
2018-02-23T09:52:36.610Z,-0.39
2018-02-23T09:53:46.339Z,-0.39
2018-02-23T09:54:56.071Z,-0.3
2018-02-23T09:56:05.802Z,-0.26
2018-02-23T09:57:15.792Z,-0.27
2018-02-23T09:58:25.785Z,-0.3
2018-02-23T09:59:35.509Z,-0.36
2018-02-23T10:00:45.508Z,-0.38
2018-02-23T10:01:55.501Z,-0.36
2018-02-23T10:03:05.228Z,-0.41
2018-02-23T10:04:15.227Z,-0.38
2018-02-23T10:05:24.962Z,-0.42
2018-02-23T10:06:34.962Z,-0.36
2018-02-23T10:07:44.431Z,-0.26
2018-02-23T10:08:54.430Z,-0.13
2018-02-23T10:10:04.428Z,-0.13
2018-02-23T10:11:14.157Z,-0.13
2018-02-23T10:12:24.160Z,-0.12
2018-02-23T10:13:34.158Z,-0.13
2018-02-23T10:14:43.888Z,-0.05
2018-02-23T10:15:53.611Z,0.01
2018-02-23T10:17:03.606Z,0.12
2018-02-23T10:18:13.330Z,0.06
2018-02-23T10:19:23.320Z,0.09
2018-02-23T10:20:33.325Z,0.16
2018-02-23T10:21:43.324Z,0.2
2018-02-23T10:22:53.332Z,0.16
2018-02-23T10:24:03.333Z,0.06
2018-02-23T10:25:12.526Z,0.16
2018-02-23T10:26:22.522Z,0.05
2018-02-23T10:27:32.527Z,-0.02
2018-02-23T10:28:41.993Z,-0.05
2018-02-23T10:29:51.720Z,-0.03
2018-02-23T10:31:01.445Z,0.06
2018-02-23T10:32:10.910Z,-0.06
2018-02-23T10:33:20.740Z,-0.17
2018-02-23T10:34:30.742Z,-0.35
2018-02-23T10:35:40.736Z,-0.38
2018-02-23T10:36:50.730Z,-0.3
2018-02-23T10:38:00.734Z,-0.09
2018-02-23T10:39:10.793Z,-0.05
2018-02-23T10:40:20.845Z,-0.06
2018-02-23T10:41:30.620Z,0.12
2018-02-23T10:42:40.345Z,0.05
2018-02-23T10:43:50.343Z,-0.07
2018-02-23T10:44:59.802Z,-0.02
2018-02-23T10:46:09.832Z,0.02
2018-02-23T10:47:19.649Z,0.15
2018-02-23T10:48:29.642Z,0.15
2018-02-23T10:49:39.103Z,0.19
2018-02-23T10:50:48.558Z,0.33
2018-02-23T10:51:58.564Z,0.24
2018-02-23T10:53:08.560Z,0.23
2018-02-23T10:54:18.290Z,0.31
2018-02-23T10:55:28.018Z,0.36
2018-02-23T10:56:38.017Z,0.34
2018-02-23T10:57:47.865Z,0.33
2018-02-23T10:58:57.880Z,0.45
2018-02-23T11:00:07.877Z,0.48
2018-02-23T11:01:17.079Z,0.52
2018-02-23T11:02:26.621Z,0.58
2018-02-23T11:03:36.351Z,0.47
2018-02-23T11:04:46.342Z,0.61
2018-02-23T11:05:56.069Z,0.84
2018-02-23T11:07:05.532Z,1.09
2018-02-23T11:08:15.530Z,1.32
2018-02-23T11:09:25.257Z,1.68
2018-02-23T11:10:34.983Z,1.7
2018-02-23T11:11:43.914Z,1.81
2018-02-23T11:12:53.908Z,2
2018-02-23T11:14:03.639Z,2
2018-02-23T11:15:13.637Z,2.08
2018-02-23T11:16:23.369Z,2.4
2018-02-23T11:17:33.358Z,2.64
2018-02-23T11:18:43.388Z,2.95
2018-02-23T11:19:53.505Z,3.3
2018-02-23T11:21:03.264Z,3.58
2018-02-23T11:22:13.017Z,3.91
2018-02-23T11:23:23.046Z,4.31
2018-02-23T11:24:33.079Z,4.56
2018-02-23T11:25:42.831Z,4.82
2018-02-23T11:26:52.830Z,5.16
2018-02-23T11:28:02.299Z,5.33
2018-02-23T11:29:12.033Z,5.64
2018-02-23T11:30:22.046Z,5.87
2018-02-23T11:31:31.841Z,5.97
2018-02-23T11:32:41.308Z,6.2
2018-02-23T11:33:51.309Z,6.35
2018-02-23T11:35:01.048Z,6.49
2018-02-23T11:36:11.061Z,6.74
2018-02-23T11:37:20.363Z,7.05
2018-02-23T11:38:30.365Z,7.13
2018-02-23T11:39:40.370Z,7.22
2018-02-23T11:40:50.379Z,7.36
2018-02-23T11:42:00.390Z,7.64
2018-02-23T11:43:10.125Z,7.78
2018-02-23T11:44:19.861Z,7.84
2018-02-23T11:45:29.872Z,7.99
2018-02-23T11:46:39.614Z,7.9
2018-02-23T11:47:49.347Z,7.84
2018-02-23T11:48:59.090Z,8.05
2018-02-23T11:50:09.099Z,8.21
2018-02-23T11:51:19.116Z,8.49
2018-02-23T11:52:29.117Z,8.69
2018-02-23T11:53:38.855Z,8.9
2018-02-23T11:54:48.860Z,9
2018-02-23T11:55:58.600Z,9.3
2018-02-23T11:57:08.612Z,9.33
2018-02-23T11:58:18.622Z,9.56
2018-02-23T11:59:28.627Z,9.74
2018-02-23T12:00:38.098Z,9.91
2018-02-23T12:01:48.110Z,10.33
2018-02-23T12:02:57.847Z,10.62
2018-02-23T12:04:07.867Z,10.75
2018-02-23T12:05:17.877Z,10.62
2018-02-23T12:06:27.363Z,11.01
2018-02-23T12:07:37.107Z,11.26
2018-02-23T12:08:46.846Z,11.4
2018-02-23T12:09:56.859Z,11.38
2018-02-23T12:11:06.609Z,11.52
2018-02-23T12:12:16.619Z,11.41
2018-02-23T12:13:26.365Z,11.62
2018-02-23T12:14:36.373Z,11.8
2018-02-23T12:15:46.420Z,11.97
2018-02-23T12:16:56.531Z,12.23
2018-02-23T12:18:06.006Z,12.36
2018-02-23T12:19:15.748Z,12.47
2018-02-23T12:20:25.757Z,12.78
2018-02-23T12:21:35.506Z,12.81
2018-02-23T12:22:45.512Z,12.84
2018-02-23T12:23:55.522Z,12.78
2018-02-23T12:25:05.269Z,12.88
2018-02-23T12:26:15.013Z,13.01
2018-02-23T12:27:25.029Z,13.17
2018-02-23T12:28:35.037Z,13.31
2018-02-23T12:29:44.780Z,13.5
2018-02-23T12:30:54.810Z,13.28
2018-02-23T12:32:04.831Z,13.03
2018-02-23T12:33:14.591Z,12.47
2018-02-23T12:34:24.630Z,12.21
2018-02-23T12:35:34.419Z,11.71
2018-02-23T12:36:44.222Z,11.58
2018-02-23T12:37:54.257Z,11.26
2018-02-23T12:39:04.280Z,11.02
2018-02-23T12:40:14.037Z,10.68
2018-02-23T12:41:24.080Z,10.51
2018-02-23T12:42:33.575Z,10.31
2018-02-23T12:43:43.596Z,10.55
2018-02-23T12:44:53.615Z,10.69
2018-02-23T12:46:03.365Z,11.45
2018-02-23T12:47:13.394Z,12.15
2018-02-23T12:48:23.409Z,12.33
2018-02-23T12:49:33.435Z,11.95
2018-02-23T12:50:43.451Z,11.6
2018-02-23T12:51:53.476Z,11.34
2018-02-23T12:53:03.506Z,11.13
2018-02-23T12:54:13.594Z,11.07
2018-02-23T12:55:23.614Z,10.89
2018-02-23T12:56:33.642Z,10.94
2018-02-23T12:57:43.398Z,11.1
2018-02-23T12:58:53.424Z,11.04
2018-02-23T13:00:03.446Z,10.79
2018-02-23T13:01:13.198Z,10.13
2018-02-23T13:02:23.231Z,9.44
2018-02-23T13:03:33.517Z,9.05
2018-02-23T13:04:43.675Z,8.79
2018-02-23T13:05:53.431Z,8.52
2018-02-23T13:07:03.463Z,8.6
2018-02-23T13:08:13.487Z,8.52
2018-02-23T13:09:23.510Z,8.46
2018-02-23T13:10:33.631Z,8.23
2018-02-23T13:11:43.655Z,7.99
2018-02-23T13:12:53.406Z,7.93
2018-02-23T13:14:03.164Z,7.77
2018-02-23T13:15:12.917Z,7.56
2018-02-23T13:16:22.934Z,7.4
2018-02-23T13:17:32.728Z,7.14
2018-02-23T13:18:42.478Z,7.15
2018-02-23T13:19:52.493Z,6.9
2018-02-23T13:21:02.510Z,6.75
2018-02-23T13:22:12.286Z,7.05
2018-02-23T13:23:21.766Z,7.51
2018-02-23T13:24:31.516Z,7.64
2018-02-23T13:25:41.529Z,7.59
2018-02-23T13:26:51.543Z,7.46
2018-02-23T13:28:01.554Z,7.37
2018-02-23T13:29:11.574Z,7.14
2018-02-23T13:30:21.587Z,7.04
2018-02-23T13:31:31.332Z,6.96
2018-02-23T13:32:41.337Z,6.9
2018-02-23T13:33:51.087Z,6.74
2018-02-23T13:35:01.103Z,6.72
2018-02-23T13:36:10.846Z,6.71
2018-02-23T13:37:20.867Z,6.77
2018-02-23T13:38:30.877Z,6.59
2018-02-23T13:39:40.610Z,6.39
2018-02-23T13:40:50.616Z,6.25
2018-02-23T13:42:00.359Z,6.09
2018-02-23T13:43:10.098Z,5.79
2018-02-23T13:44:19.841Z,5.65
2018-02-23T13:45:29.685Z,5.38
2018-02-23T13:46:39.435Z,5.22
2018-02-23T13:47:49.156Z,5.08
2018-02-23T13:48:59.170Z,5.02
2018-02-23T13:50:09.176Z,5.05
2018-02-23T13:51:18.912Z,5.02
2018-02-23T13:52:28.921Z,4.86
2018-02-23T13:53:38.391Z,4.71
2018-02-23T13:54:48.392Z,4.68
2018-02-23T13:55:58.126Z,4.78
2018-02-23T13:57:08.246Z,4.74
2018-02-23T13:58:18.257Z,4.68
2018-02-23T13:59:28.264Z,4.64
2018-02-23T14:00:38.276Z,4.52
2018-02-23T14:01:48.280Z,4.5
2018-02-23T14:02:58.280Z,4.4
2018-02-23T14:04:08.017Z,4.21
2018-02-23T14:05:17.775Z,4.13
2018-02-23T14:06:27.772Z,4.02
2018-02-23T14:07:37.503Z,3.81
2018-02-23T14:08:47.500Z,3.64
2018-02-23T14:09:57.504Z,3.36
2018-02-23T14:11:07.263Z,3.09
2018-02-23T14:12:17.003Z,2.88
2018-02-23T14:13:27.008Z,2.55
2018-02-23T14:14:37.011Z,2.22
2018-02-23T14:15:46.749Z,2
2018-02-23T14:16:56.757Z,1.74
2018-02-23T14:18:06.498Z,1.42
2018-02-23T14:19:16.499Z,1.28
2018-02-23T14:20:26.235Z,1.14
2018-02-23T14:21:36.237Z,1
2018-02-23T14:22:46.240Z,1.04
2018-02-23T14:23:56.242Z,1.03
2018-02-23T14:25:06.244Z,1.21
2018-02-23T14:26:15.981Z,1.07
2018-02-23T14:27:25.979Z,1.16
2018-02-23T14:28:35.982Z,1.1
2018-02-23T14:29:45.448Z,1.06
2018-02-23T14:30:55.445Z,0.99
2018-02-23T14:32:05.450Z,0.82
2018-02-23T14:33:15.458Z,0.59
2018-02-23T14:34:25.192Z,0.49
2018-02-23T14:35:34.658Z,0.33
2018-02-23T14:36:44.387Z,0.31
2018-02-23T14:37:54.388Z,0.39
2018-02-23T14:39:04.426Z,0.27
2018-02-23T14:40:14.425Z,0.16
2018-02-23T14:41:24.423Z,0.15
2018-02-23T14:42:34.155Z,-0.05
2018-02-23T14:43:43.988Z,-0.03
2018-02-23T14:44:53.719Z,0.08
2018-02-23T14:46:03.717Z,0.08
2018-02-23T14:47:13.454Z,0.08
2018-02-23T14:48:23.191Z,0.09
2018-02-23T14:49:33.188Z,0.09
2018-02-23T14:50:42.921Z,0.18
2018-02-23T14:51:52.652Z,0.18
2018-02-23T14:53:02.648Z,0.09
2018-02-23T14:54:12.660Z,0.11
2018-02-23T14:55:22.667Z,0.01
2018-02-23T14:56:32.124Z,0.11
2018-02-23T14:57:41.856Z,0.08
2018-02-23T14:58:51.586Z,0.11
2018-02-23T15:00:01.604Z,0.2
2018-02-23T15:01:11.603Z,0.16
2018-02-23T15:02:21.598Z,0.18
2018-02-23T15:03:31.329Z,0.19
2018-02-23T15:04:41.326Z,0.15
2018-02-23T15:05:51.321Z,0.16
2018-02-23T15:07:01.363Z,0.18
2018-02-23T15:08:11.360Z,0.16
2018-02-23T15:09:21.368Z,0.12
2018-02-23T15:10:31.101Z,0.15
2018-02-23T15:11:41.202Z,0.12
2018-02-23T15:12:50.672Z,0.08
2018-02-23T15:14:00.726Z,-0.02
2018-02-23T15:15:10.461Z,0